createdAt,value
2022-09-26T00:00:48.050Z,87.73
2022-09-26T00:01:48.116Z,87.63
2022-09-26T00:02:48.087Z,85.78
2022-09-26T00:03:47.953Z,85.84
2022-09-26T00:04:47.997Z,85.22
2022-09-26T00:05:47.967Z,84.36
2022-09-26T00:06:47.982Z,83.85
2022-09-26T00:07:47.941Z,83.23
2022-09-26T00:08:47.961Z,83.44
2022-09-26T00:09:47.933Z,83.27
2022-09-26T00:10:47.957Z,84.89
2022-09-26T00:11:47.946Z,86.37
2022-09-26T00:12:47.915Z,87.44
2022-09-26T00:13:47.924Z,88.06
2022-09-26T00:14:47.892Z,87.99
2022-09-26T00:15:47.941Z,88.82
2022-09-26T00:16:47.965Z,89.34
2022-09-26T00:17:47.885Z,89.07
2022-09-26T00:18:47.884Z,89.58
2022-09-26T00:19:47.965Z,89.79
2022-09-26T00:20:47.903Z,90.31
2022-09-26T00:21:47.936Z,90.04
2022-09-26T00:22:47.872Z,90.76
2022-09-26T00:23:47.856Z,91.28
2022-09-26T00:24:47.909Z,91.38
2022-09-26T00:25:47.865Z,91.48
2022-09-26T00:26:47.881Z,91.38
2022-09-26T00:27:48.841Z,91.13
2022-09-26T00:28:47.831Z,90.37
2022-09-26T00:29:47.844Z,89.95
2022-09-26T00:30:47.864Z,89.29
2022-09-26T00:31:47.893Z,88.74
2022-09-26T00:32:47.821Z,88.23
2022-09-26T00:33:47.798Z,87.05
2022-09-26T00:34:48.798Z,86.74
2022-09-26T00:35:47.806Z,86.08
2022-09-26T00:36:47.821Z,84.95
2022-09-26T00:37:47.787Z,84.13
2022-09-26T00:38:47.781Z,83.51
2022-09-26T00:39:47.781Z,83.83
2022-09-26T00:40:47.803Z,83.31
2022-09-26T00:41:47.774Z,83.11
2022-09-26T00:42:47.766Z,82.04
2022-09-26T00:43:47.775Z,82.18
2022-09-26T00:44:47.753Z,82.39
2022-09-26T00:45:47.828Z,83.20
2022-09-26T00:46:47.762Z,83.00
2022-09-26T00:47:47.779Z,83.00
2022-09-26T00:48:47.745Z,82.90
2022-09-26T00:49:47.739Z,82.69
2022-09-26T00:50:47.726Z,82.28
2022-09-26T00:51:47.729Z,82.59
2022-09-26T00:52:47.769Z,81.97
2022-09-26T00:53:47.713Z,82.79
2022-09-26T00:54:47.703Z,82.21
2022-09-26T00:55:47.718Z,82.01
2022-09-26T00:56:47.693Z,83.07
2022-09-26T00:57:47.717Z,83.59
2022-09-26T00:58:47.694Z,83.59
2022-09-26T00:59:47.684Z,83.70
2022-09-26T01:00:47.715Z,83.80
2022-09-26T01:01:47.800Z,83.80
2022-09-26T01:02:47.737Z,84.21
2022-09-26T01:03:47.691Z,84.62
2022-09-26T01:04:47.662Z,83.97
2022-09-26T01:05:47.685Z,83.45
2022-09-26T01:06:47.644Z,83.86
2022-09-26T01:07:47.653Z,83.04
2022-09-26T01:08:47.673Z,83.11
2022-09-26T01:09:47.658Z,83.04
2022-09-26T01:10:47.657Z,82.79
2022-09-26T01:11:48.573Z,82.59
2022-09-26T01:12:47.621Z,83.72
2022-09-26T01:13:47.608Z,83.83
2022-09-26T01:14:47.702Z,83.41
2022-09-26T01:15:47.589Z,83.14
2022-09-26T01:16:47.650Z,84.93
2022-09-26T01:17:47.572Z,85.59
2022-09-26T01:18:47.595Z,87.69
2022-09-26T01:19:47.590Z,90.06
2022-09-26T01:20:47.617Z,90.57
2022-09-26T01:21:47.586Z,91.87
2022-09-26T01:22:47.567Z,92.38
2022-09-26T01:23:47.568Z,92.55
2022-09-26T01:24:47.578Z,92.55
2022-09-26T01:25:47.592Z,92.50
2022-09-26T01:26:47.563Z,92.61
2022-09-26T01:27:47.541Z,92.30
2022-09-26T01:28:47.683Z,91.95
2022-09-26T01:29:47.515Z,91.53
2022-09-26T01:30:47.567Z,91.53
2022-09-26T01:31:47.492Z,91.02
2022-09-26T01:32:47.542Z,90.51
2022-09-26T01:33:47.497Z,90.30
2022-09-26T01:34:48.519Z,90.41
2022-09-26T01:35:47.499Z,90.47
2022-09-26T01:36:47.495Z,90.36
2022-09-26T01:37:47.509Z,90.06
2022-09-26T01:38:47.484Z,89.23
2022-09-26T01:39:47.470Z,89.23
2022-09-26T01:40:47.523Z,89.23
2022-09-26T01:41:47.476Z,89.95
2022-09-26T01:42:47.496Z,89.64
2022-09-26T01:43:47.464Z,89.75
2022-09-26T01:44:47.429Z,89.54
2022-09-26T01:45:47.470Z,90.09
2022-09-26T01:46:47.461Z,90.88
2022-09-26T01:47:47.445Z,90.98
2022-09-26T01:48:47.416Z,90.98
2022-09-26T01:49:47.439Z,90.98
2022-09-26T01:50:47.402Z,90.78
2022-09-26T01:51:47.412Z,90.47
2022-09-26T01:52:47.397Z,91.02
2022-09-26T01:53:47.385Z,91.13
2022-09-26T01:54:47.575Z,92.20
2022-09-26T01:55:47.392Z,92.96
2022-09-26T01:56:47.376Z,93.16
2022-09-26T01:57:47.389Z,93.27
2022-09-26T01:58:47.379Z,93.99
2022-09-26T01:59:47.400Z,94.46
2022-09-26T02:00:47.377Z,94.31
2022-09-26T02:01:47.421Z,93.33
2022-09-26T02:02:47.390Z,93.23
2022-09-26T02:03:47.338Z,92.46
2022-09-26T02:04:47.366Z,91.58
2022-09-26T02:05:47.332Z,90.00
2022-09-26T02:06:47.313Z,88.49
2022-09-26T02:07:47.300Z,87.98
2022-09-26T02:08:48.311Z,86.85
2022-09-26T02:09:47.304Z,87.60
2022-09-26T02:10:47.328Z,87.46
2022-09-26T02:11:47.327Z,86.95
2022-09-26T02:12:47.375Z,86.80
2022-09-26T02:13:47.397Z,85.68
2022-09-26T02:14:47.291Z,86.54
2022-09-26T02:15:47.340Z,86.40
2022-09-26T02:16:47.456Z,86.40
2022-09-26T02:17:47.268Z,87.46
2022-09-26T02:18:47.247Z,88.74
2022-09-26T02:19:47.246Z,90.12
2022-09-26T02:20:47.250Z,91.97
2022-09-26T02:21:47.265Z,93.01
2022-09-26T02:22:47.240Z,93.73
2022-09-26T02:23:47.235Z,95.00
2022-09-26T02:24:47.252Z,95.83
2022-09-26T02:25:47.245Z,97.27
2022-09-26T02:26:47.244Z,97.17
2022-09-26T02:27:47.251Z,97.38
2022-09-26T02:28:47.216Z,97.17
2022-09-26T02:29:47.209Z,97.01
2022-09-26T02:30:47.202Z,97.48
2022-09-26T02:31:47.283Z,97.52
2022-09-26T02:32:47.250Z,97.01
2022-09-26T02:33:47.220Z,96.96
2022-09-26T02:34:47.200Z,96.96
2022-09-26T02:35:47.185Z,96.96
2022-09-26T02:36:47.181Z,97.43
2022-09-26T02:37:47.198Z,96.50
2022-09-26T02:38:47.209Z,95.78
2022-09-26T02:39:47.157Z,96.09
2022-09-26T02:40:47.237Z,95.42
2022-09-26T02:41:47.154Z,96.03
2022-09-26T02:42:47.135Z,95.99
2022-09-26T02:43:47.134Z,96.03
2022-09-26T02:44:47.139Z,95.83
2022-09-26T02:45:47.246Z,95.73
2022-09-26T02:46:47.142Z,96.49
2022-09-26T02:47:47.161Z,96.34
2022-09-26T02:48:47.175Z,97.42
2022-09-26T02:49:47.105Z,97.06
2022-09-26T02:50:47.171Z,96.96
2022-09-26T02:51:47.112Z,96.86
2022-09-26T02:52:47.116Z,97.27
2022-09-26T02:53:47.126Z,96.66
2022-09-26T02:54:47.085Z,96.55
2022-09-26T02:55:47.092Z,96.70
2022-09-26T02:56:47.084Z,97.21
2022-09-26T02:57:47.105Z,97.21
2022-09-26T02:58:47.065Z,96.91
2022-09-26T02:59:47.059Z,97.42
2022-09-26T03:00:47.134Z,97.52
2022-09-26T03:01:47.039Z,97.52
2022-09-26T03:02:47.083Z,97.42
2022-09-26T03:03:47.098Z,97.73
2022-09-26T03:04:47.080Z,97.94
2022-09-26T03:05:47.020Z,97.94
2022-09-26T03:06:47.120Z,97.52
2022-09-26T03:07:47.038Z,98.03
2022-09-26T03:08:47.019Z,97.52
2022-09-26T03:09:46.999Z,97.21
2022-09-26T03:10:47.005Z,97.52
2022-09-26T03:11:47.020Z,97.42
2022-09-26T03:12:47.016Z,98.03
2022-09-26T03:13:47.007Z,97.83
2022-09-26T03:14:46.979Z,97.89
2022-09-26T03:15:46.981Z,97.52
2022-09-26T03:16:47.021Z,97.99
2022-09-26T03:17:46.965Z,97.94
2022-09-26T03:18:46.971Z,97.89
2022-09-26T03:19:46.958Z,97.68
2022-09-26T03:20:46.950Z,97.68
2022-09-26T03:21:46.938Z,97.68
2022-09-26T03:22:46.954Z,97.68
2022-09-26T03:23:46.945Z,97.48
2022-09-26T03:24:46.979Z,97.38
2022-09-26T03:25:46.939Z,97.78
2022-09-26T03:26:46.925Z,97.38
2022-09-26T03:27:46.902Z,97.43
2022-09-26T03:28:46.918Z,96.92
2022-09-26T03:29:46.938Z,96.61
2022-09-26T03:30:46.911Z,95.99
2022-09-26T03:31:46.963Z,95.99
2022-09-26T03:32:46.877Z,96.41
2022-09-26T03:33:46.881Z,95.74
2022-09-26T03:34:46.898Z,96.25
2022-09-26T03:35:46.862Z,95.43
2022-09-26T03:36:46.862Z,95.33
2022-09-26T03:37:46.875Z,95.23
2022-09-26T03:38:46.882Z,94.92
2022-09-26T03:39:46.872Z,95.02
2022-09-26T03:40:46.906Z,94.71
2022-09-26T03:41:46.875Z,94.26
2022-09-26T03:42:46.849Z,95.02
2022-09-26T03:43:46.834Z,94.40
2022-09-26T03:44:46.833Z,94.92
2022-09-26T03:45:46.880Z,94.92
2022-09-26T03:46:46.845Z,95.17
2022-09-26T03:47:46.815Z,95.06
2022-09-26T03:48:46.803Z,94.90
2022-09-26T03:49:46.826Z,95.58
2022-09-26T03:50:46.831Z,95.68
2022-09-26T03:51:46.798Z,95.89
2022-09-26T03:52:46.819Z,96.24
2022-09-26T03:53:46.819Z,95.99
2022-09-26T03:54:46.771Z,96.30
2022-09-26T03:55:46.778Z,95.84
2022-09-26T03:56:46.793Z,95.64
2022-09-26T03:57:46.789Z,95.06
2022-09-26T03:58:46.760Z,95.27
2022-09-26T03:59:46.750Z,95.68
2022-09-26T04:00:46.815Z,95.89
2022-09-26T04:01:46.779Z,95.58
2022-09-26T04:02:46.776Z,95.53
2022-09-26T04:03:50.581Z,95.78
2022-09-26T04:04:47.733Z,96.30
2022-09-26T04:05:46.733Z,95.89
2022-09-26T04:06:46.745Z,95.53
2022-09-26T04:07:46.708Z,96.05
2022-09-26T04:08:46.717Z,95.06
2022-09-26T04:09:46.713Z,95.53
2022-09-26T04:10:46.702Z,94.71
2022-09-26T04:11:46.707Z,94.81
2022-09-26T04:12:46.696Z,95.37
2022-09-26T04:13:52.009Z,94.92
2022-09-26T04:14:48.754Z,95.74
2022-09-26T04:15:46.689Z,95.43
2022-09-26T04:16:46.758Z,95.12
2022-09-26T04:17:46.661Z,95.02
2022-09-26T04:18:46.656Z,94.71
2022-09-26T04:19:46.678Z,95.12
2022-09-26T04:20:46.704Z,95.06
2022-09-26T04:21:46.664Z,95.99
2022-09-26T04:22:46.645Z,95.58
2022-09-26T04:23:46.632Z,96.09
2022-09-26T04:24:46.670Z,95.68
2022-09-26T04:25:46.643Z,95.33
2022-09-26T04:26:46.711Z,95.95
2022-09-26T04:27:46.622Z,95.23
2022-09-26T04:28:46.622Z,95.33
2022-09-26T04:29:46.660Z,94.77
2022-09-26T04:30:46.618Z,94.92
2022-09-26T04:31:46.732Z,94.71
2022-09-26T04:32:46.616Z,94.51
2022-09-26T04:33:46.620Z,94.46
2022-09-26T04:34:46.609Z,94.15
2022-09-26T04:35:46.593Z,93.99
2022-09-26T04:36:47.616Z,94.71
2022-09-26T04:37:46.652Z,94.77
2022-09-26T04:38:46.584Z,94.77
2022-09-26T04:39:46.582Z,94.98
2022-09-26T04:40:46.616Z,93.64
2022-09-26T04:41:46.583Z,94.21
2022-09-26T04:42:46.624Z,93.90
2022-09-26T04:43:46.577Z,93.49
2022-09-26T04:44:46.629Z,92.87
2022-09-26T04:45:47.440Z,93.08
2022-09-26T04:46:46.540Z,93.49
2022-09-26T04:47:46.580Z,93.49
2022-09-26T04:48:46.551Z,93.49
2022-09-26T04:49:46.544Z,92.93
2022-09-26T04:50:46.512Z,92.83
2022-09-26T04:51:46.527Z,92.46
2022-09-26T04:52:46.498Z,92.57
2022-09-26T04:53:46.556Z,92.87
2022-09-26T04:54:46.500Z,93.29
2022-09-26T04:55:46.506Z,93.70
2022-09-26T04:56:46.500Z,93.39
2022-09-26T04:57:46.486Z,93.08
2022-09-26T04:58:46.527Z,92.32
2022-09-26T04:59:46.543Z,91.80
2022-09-26T05:00:46.525Z,92.25
2022-09-26T05:01:46.584Z,92.77
2022-09-26T05:02:46.481Z,93.08
2022-09-26T05:03:46.497Z,93.18
2022-09-26T05:04:46.480Z,93.29
2022-09-26T05:05:46.485Z,92.87
2022-09-26T05:06:46.626Z,92.57
2022-09-26T05:07:46.431Z,92.46
2022-09-26T05:08:46.564Z,92.32
2022-09-26T05:09:46.441Z,92.11
2022-09-26T05:10:46.476Z,91.80
2022-09-26T05:11:46.418Z,91.70
2022-09-26T05:12:46.411Z,91.91
2022-09-26T05:13:50.093Z,92.11
2022-09-26T05:14:47.392Z,92.21
2022-09-26T05:15:46.465Z,91.91
2022-09-26T05:16:46.470Z,91.66
2022-09-26T05:17:46.391Z,91.41
2022-09-26T05:18:46.378Z,91.10
2022-09-26T05:19:46.403Z,90.80
2022-09-26T05:20:46.442Z,90.48
2022-09-26T05:21:46.379Z,90.80
2022-09-26T05:22:46.391Z,90.08
2022-09-26T05:23:46.373Z,90.18
2022-09-26T05:24:46.344Z,89.87
2022-09-26T05:25:46.371Z,89.97
2022-09-26T05:26:46.355Z,89.56
2022-09-26T05:27:46.360Z,89.97
2022-09-26T05:28:46.321Z,89.70
2022-09-26T05:29:46.341Z,90.83
2022-09-26T05:30:46.351Z,90.94
2022-09-26T05:31:46.398Z,91.10
2022-09-26T05:32:46.312Z,91.61
2022-09-26T05:33:46.377Z,91.16
2022-09-26T05:34:46.321Z,91.20
2022-09-26T05:35:46.340Z,90.75
2022-09-26T05:36:46.301Z,90.65
2022-09-26T05:37:46.291Z,90.34
2022-09-26T05:38:46.432Z,89.52
2022-09-26T05:39:46.307Z,90.80
2022-09-26T05:40:46.317Z,91.41
2022-09-26T05:41:46.308Z,91.20
2022-09-26T05:42:46.284Z,91.20
2022-09-26T05:43:46.330Z,91.06
2022-09-26T05:44:46.283Z,91.61
2022-09-26T05:45:46.406Z,91.57
2022-09-26T05:46:46.371Z,91.57
2022-09-26T05:47:46.253Z,91.31
2022-09-26T05:48:46.251Z,91.47
2022-09-26T05:49:46.257Z,91.47
2022-09-26T05:50:46.247Z,91.37
2022-09-26T05:51:46.244Z,91.47
2022-09-26T05:52:46.208Z,91.47
2022-09-26T05:53:46.283Z,91.02
2022-09-26T05:54:46.270Z,90.61
2022-09-26T05:55:46.322Z,91.12
2022-09-26T05:56:46.211Z,91.16
2022-09-26T05:57:46.185Z,91.33
2022-09-26T05:58:46.191Z,91.12
2022-09-26T05:59:46.197Z,91.12
2022-09-26T06:00:46.271Z,91.33
2022-09-26T06:01:47.143Z,91.37
2022-09-26T06:02:46.215Z,91.88
2022-09-26T06:03:46.184Z,91.99
2022-09-26T06:04:46.149Z,91.94
2022-09-26T06:05:46.155Z,91.94
2022-09-26T06:06:46.170Z,91.63
2022-09-26T06:07:46.186Z,91.42
2022-09-26T06:08:46.115Z,91.59
2022-09-26T06:09:46.185Z,91.08
2022-09-26T06:10:46.120Z,90.97
2022-09-26T06:11:46.124Z,91.18
2022-09-26T06:12:50.727Z,90.67
2022-09-26T06:13:48.128Z,90.42
2022-09-26T06:14:46.144Z,90.42
2022-09-26T06:15:46.135Z,90.62
2022-09-26T06:16:46.183Z,90.22
2022-09-26T06:17:46.120Z,90.28
2022-09-26T06:18:46.129Z,89.39
2022-09-26T06:19:46.140Z,89.76
2022-09-26T06:20:46.070Z,88.94
2022-09-26T06:21:46.091Z,89.04
2022-09-26T06:22:46.147Z,89.15
2022-09-26T06:23:46.117Z,89.15
2022-09-26T06:24:46.094Z,88.43
2022-09-26T06:25:46.064Z,88.74
2022-09-26T06:26:46.053Z,89.04
2022-09-26T06:27:46.099Z,89.66
2022-09-26T06:28:46.088Z,89.66
2022-09-26T06:29:46.054Z,89.00
2022-09-26T06:30:46.072Z,89.04
2022-09-26T06:31:46.142Z,89.11
2022-09-26T06:32:46.023Z,88.90
2022-09-26T06:33:46.064Z,89.25
2022-09-26T06:34:46.105Z,89.72
2022-09-26T06:35:46.020Z,89.31
2022-09-26T06:36:46.021Z,89.62
2022-09-26T06:37:46.022Z,89.51
2022-09-26T06:38:46.051Z,89.51
2022-09-26T06:39:46.056Z,89.51
2022-09-26T06:40:46.057Z,90.03
2022-09-26T06:41:45.976Z,89.31
2022-09-26T06:42:46.043Z,89.62
2022-09-26T06:43:45.971Z,89.42
2022-09-26T06:44:47.002Z,89.83
2022-09-26T06:45:45.992Z,89.58
2022-09-26T06:46:45.986Z,89.89
2022-09-26T06:47:46.023Z,89.68
2022-09-26T06:48:45.961Z,89.68
2022-09-26T06:49:45.958Z,89.78
2022-09-26T06:50:45.980Z,89.33
2022-09-26T06:51:46.967Z,89.64
2022-09-26T06:52:45.948Z,89.53
2022-09-26T06:53:46.003Z,88.92
2022-09-26T06:54:45.935Z,89.12
2022-09-26T06:55:45.935Z,88.98
2022-09-26T06:56:45.937Z,88.88
2022-09-26T06:57:47.109Z,88.88
2022-09-26T06:58:45.898Z,88.47
2022-09-26T06:59:45.889Z,88.17
2022-09-26T07:00:46.030Z,88.37
2022-09-26T07:01:45.965Z,88.68
2022-09-26T07:02:45.876Z,88.47
2022-09-26T07:03:46.264Z,88.37
2022-09-26T07:04:45.882Z,88.37
2022-09-26T07:05:45.884Z,89.09
2022-09-26T07:06:45.913Z,87.92
2022-09-26T07:07:45.932Z,87.96
2022-09-26T07:09:03.881Z,87.82
2022-09-26T07:09:47.849Z,87.82
2022-09-26T07:10:45.835Z,88.23
2022-09-26T07:12:12.863Z,87.61
2022-09-26T07:12:47.861Z,88.37
2022-09-26T07:13:45.837Z,88.23
2022-09-26T07:14:48.872Z,88.94
2022-09-26T07:15:46.874Z,87.88
2022-09-26T07:16:45.810Z,88.12
2022-09-26T07:17:45.794Z,88.12
2022-09-26T07:18:45.801Z,88.49
2022-09-26T07:19:45.907Z,88.70
2022-09-26T07:20:45.760Z,88.55
2022-09-26T07:21:45.770Z,87.73
2022-09-26T07:22:45.794Z,87.84
2022-09-26T07:23:45.780Z,87.63
2022-09-26T07:24:45.841Z,87.53
2022-09-26T07:25:45.843Z,87.84
2022-09-26T07:26:45.940Z,87.43
2022-09-26T07:27:45.842Z,87.23
2022-09-26T07:28:47.742Z,88.04
2022-09-26T07:29:46.790Z,87.94
2022-09-26T07:30:45.811Z,87.84
2022-09-26T07:31:45.879Z,87.23
2022-09-26T07:32:45.761Z,87.43
2022-09-26T07:33:45.693Z,87.02
2022-09-26T07:34:45.838Z,87.18
2022-09-26T07:35:45.793Z,87.18
2022-09-26T07:36:45.685Z,87.24
2022-09-26T07:37:45.719Z,86.94
2022-09-26T07:38:45.709Z,86.43
2022-09-26T07:39:47.415Z,85.21
2022-09-26T07:40:45.741Z,84.96
2022-09-26T07:41:46.163Z,85.06
2022-09-26T07:42:58.593Z,85.98
2022-09-26T07:45:47.624Z,84.92
2022-09-26T07:46:45.795Z,85.22
2022-09-26T07:47:45.605Z,85.27
2022-09-26T07:48:45.608Z,85.16
2022-09-26T07:49:45.628Z,85.06
2022-09-26T07:50:45.614Z,84.86
2022-09-26T07:51:45.660Z,84.90
2022-09-26T07:52:45.630Z,85.30
2022-09-26T07:53:45.626Z,85.24
2022-09-26T07:54:45.587Z,84.94
2022-09-26T07:55:45.576Z,86.26
2022-09-26T07:56:45.587Z,86.57
2022-09-26T07:57:45.572Z,86.06
2022-09-26T07:58:45.564Z,86.16
2022-09-26T07:59:45.565Z,84.94
2022-09-26T08:00:45.588Z,85.14
2022-09-26T08:01:45.571Z,86.06
2022-09-26T08:02:45.632Z,85.14
2022-09-26T08:03:45.514Z,85.04
2022-09-26T08:04:45.506Z,85.18
2022-09-26T08:05:45.564Z,85.04
2022-09-26T08:06:45.510Z,85.18
2022-09-26T08:07:45.492Z,85.18
2022-09-26T08:08:46.526Z,84.94
2022-09-26T08:09:45.493Z,84.94
2022-09-26T08:10:45.486Z,84.57
2022-09-26T08:11:45.476Z,85.18
2022-09-26T08:12:45.477Z,85.35
2022-09-26T08:13:45.513Z,84.94
2022-09-26T08:14:45.442Z,86.12
2022-09-26T08:15:45.478Z,85.35
2022-09-26T08:16:45.450Z,83.51
2022-09-26T08:17:45.496Z,84.22
2022-09-26T08:18:45.440Z,84.33
2022-09-26T08:19:45.460Z,83.61
2022-09-26T08:20:45.425Z,83.57
2022-09-26T08:21:45.448Z,84.59
2022-09-26T08:22:45.418Z,84.59
2022-09-26T08:23:45.424Z,82.82
2022-09-26T08:24:45.406Z,82.92
2022-09-26T08:25:45.393Z,82.86
2022-09-26T08:26:45.438Z,82.10
2022-09-26T08:27:45.407Z,81.49
2022-09-26T08:28:45.363Z,81.90
2022-09-26T08:29:45.462Z,81.80
2022-09-26T08:30:45.359Z,81.49
2022-09-26T08:31:45.381Z,81.09
2022-09-26T08:32:45.383Z,80.78
2022-09-26T08:33:45.360Z,81.09
2022-09-26T08:34:45.316Z,80.33
2022-09-26T08:35:45.318Z,80.84
2022-09-26T08:36:45.317Z,79.99
2022-09-26T08:37:45.321Z,78.87
2022-09-26T08:38:45.337Z,79.17
2022-09-26T08:39:45.310Z,78.73
2022-09-26T08:40:45.330Z,79.06
2022-09-26T08:41:45.302Z,77.74
2022-09-26T08:42:45.305Z,76.89
2022-09-26T08:43:45.315Z,76.04
2022-09-26T08:44:45.379Z,75.02
2022-09-26T08:45:47.717Z,75.53
2022-09-26T08:46:46.296Z,74.65
2022-09-26T08:47:45.258Z,73.54
2022-09-26T08:48:45.329Z,74.62
2022-09-26T08:49:45.241Z,75.13
2022-09-26T08:50:45.236Z,74.04
2022-09-26T08:51:45.261Z,74.55
2022-09-26T08:52:45.225Z,75.30
2022-09-26T08:53:45.229Z,74.89
2022-09-26T08:54:45.232Z,74.79
2022-09-26T08:55:45.189Z,74.48
2022-09-26T08:56:45.205Z,74.08
2022-09-26T08:57:45.178Z,74.24
2022-09-26T08:58:45.192Z,73.70
2022-09-26T08:59:45.207Z,73.36
2022-09-26T09:00:45.197Z,72.65
2022-09-26T09:01:45.273Z,73.94
2022-09-26T09:02:45.352Z,73.19
2022-09-26T09:03:45.123Z,70.92
2022-09-26T09:04:46.500Z,71.13
2022-09-26T09:05:45.151Z,69.98
2022-09-26T09:06:45.159Z,69.95
2022-09-26T09:07:45.106Z,69.92
2022-09-26T09:08:45.105Z,67.89
2022-09-26T09:09:45.084Z,68.19
2022-09-26T09:10:45.137Z,68.36
2022-09-26T09:11:48.059Z,69.27
2022-09-26T09:12:46.103Z,65.32
2022-09-26T09:13:45.093Z,67.96
2022-09-26T09:14:45.049Z,65.53
2022-09-26T09:15:45.080Z,66.00
2022-09-26T09:16:45.063Z,68.02
2022-09-26T09:17:45.024Z,66.84
2022-09-26T09:18:45.030Z,65.29
2022-09-26T09:19:45.008Z,65.29
2022-09-26T09:20:45.011Z,65.50
2022-09-26T09:21:45.037Z,65.80
2022-09-26T09:22:45.031Z,65.70
2022-09-26T09:23:44.984Z,66.41
2022-09-26T09:24:44.983Z,65.39
2022-09-26T09:25:44.966Z,63.98
2022-09-26T09:27:54.697Z,65.32
2022-09-26T09:28:47.033Z,65.32
2022-09-26T09:29:49.347Z,65.09
2022-09-26T09:30:45.949Z,65.77
2022-09-26T09:31:44.989Z,63.87
2022-09-26T09:32:44.948Z,63.98
2022-09-26T09:33:44.896Z,64.07
2022-09-26T09:34:44.873Z,63.78
2022-09-26T09:35:44.895Z,65.67
2022-09-26T09:36:44.941Z,65.47
2022-09-26T09:37:44.914Z,65.36
2022-09-26T09:38:44.879Z,64.55
2022-09-26T09:39:44.903Z,63.57
2022-09-26T09:40:45.003Z,65.42
2022-09-26T09:41:44.886Z,63.86
2022-09-26T09:42:44.823Z,65.28
2022-09-26T09:43:44.861Z,66.53
2022-09-26T09:44:46.961Z,66.02
2022-09-26T09:45:45.800Z,63.69
2022-09-26T09:46:44.877Z,64.76
2022-09-26T09:47:44.878Z,64.43
2022-09-26T09:48:44.787Z,65.78
2022-09-26T09:49:44.897Z,66.05
2022-09-26T09:50:44.772Z,65.55
2022-09-26T09:51:44.775Z,65.42
2022-09-26T09:52:44.773Z,65.01
2022-09-26T09:53:44.755Z,65.31
2022-09-26T09:54:44.776Z,64.30
2022-09-26T09:55:44.757Z,65.39
2022-09-26T09:56:44.734Z,64.34
2022-09-26T09:57:44.723Z,63.56
2022-09-26T09:58:44.716Z,64.67
2022-09-26T09:59:44.722Z,63.35
2022-09-26T10:00:49.064Z,63.96
2022-09-26T10:01:46.717Z,62.78
2022-09-26T10:02:44.742Z,63.92
2022-09-26T10:03:44.743Z,63.32
2022-09-26T10:04:44.663Z,64.03
2022-09-26T10:05:44.707Z,63.62
2022-09-26T10:06:47.377Z,64.94
2022-09-26T10:07:44.656Z,64.70
2022-09-26T10:08:44.628Z,63.96
2022-09-26T10:09:44.643Z,65.08
2022-09-26T10:10:44.708Z,64.67
2022-09-26T10:11:47.965Z,63.32
2022-09-26T10:12:45.611Z,63.56
2022-09-26T10:13:44.596Z,63.35
2022-09-26T10:14:44.582Z,64.47
2022-09-26T10:15:44.611Z,63.66
2022-09-26T10:16:44.573Z,64.78
2022-09-26T10:18:00.896Z,63.76
2022-09-26T10:18:46.560Z,63.35
2022-09-26T10:19:44.538Z,65.28
2022-09-26T10:20:44.543Z,64.14
2022-09-26T10:21:44.545Z,63.83
2022-09-26T10:22:44.558Z,63.50
2022-09-26T10:23:44.542Z,62.86
2022-09-26T10:24:44.512Z,62.15
2022-09-26T10:25:44.502Z,62.84
2022-09-26T10:26:44.551Z,61.92
2022-09-26T10:27:44.497Z,60.00
2022-09-26T10:28:44.522Z,60.00
2022-09-26T10:29:44.468Z,59.63
2022-09-26T10:30:44.498Z,60.84
2022-09-26T10:31:44.516Z,61.04
2022-09-26T10:32:44.517Z,60.86
2022-09-26T10:33:44.470Z,60.97
2022-09-26T10:34:44.455Z,61.20
2022-09-26T10:35:44.459Z,61.00
2022-09-26T10:36:44.438Z,62.11
2022-09-26T10:37:44.408Z,61.51
2022-09-26T10:38:44.407Z,61.91
2022-09-26T10:39:44.380Z,62.62
2022-09-26T10:40:44.432Z,63.06
2022-09-26T10:41:44.367Z,63.56
2022-09-26T10:42:44.346Z,62.95
2022-09-26T10:43:44.360Z,63.53
2022-09-26T10:44:44.367Z,62.72
2022-09-26T10:45:44.354Z,63.02
2022-09-26T10:46:44.388Z,62.82
2022-09-26T10:47:44.327Z,62.99
2022-09-26T10:48:44.310Z,62.59
2022-09-26T10:49:44.347Z,63.86
2022-09-26T10:50:44.292Z,63.12
2022-09-26T10:51:44.309Z,63.06
2022-09-26T10:52:44.279Z,64.37
2022-09-26T10:53:44.277Z,63.66
2022-09-26T10:54:44.334Z,63.46
2022-09-26T10:55:44.303Z,63.76
2022-09-26T10:56:44.298Z,63.39
2022-09-26T10:57:45.599Z,63.86
2022-09-26T10:58:44.249Z,63.59
2022-09-26T10:59:44.247Z,64.50
2022-09-26T11:00:44.261Z,64.91
2022-09-26T11:01:44.268Z,65.11
2022-09-26T11:02:44.225Z,65.62
2022-09-26T11:03:44.277Z,64.81
2022-09-26T11:04:44.269Z,64.61
2022-09-26T11:05:44.262Z,64.33
2022-09-26T11:06:44.194Z,65.75
2022-09-26T11:07:44.179Z,65.24
2022-09-26T11:08:44.236Z,65.55
2022-09-26T11:09:44.151Z,65.55
2022-09-26T11:10:44.149Z,66.26
2022-09-26T11:11:44.164Z,66.46
2022-09-26T11:12:44.146Z,66.56
2022-09-26T11:13:44.109Z,66.66
2022-09-26T11:14:44.146Z,66.46
2022-09-26T11:15:44.123Z,66.56
2022-09-26T11:16:44.135Z,66.36
2022-09-26T11:17:44.220Z,66.26
2022-09-26T11:18:44.108Z,65.75
2022-09-26T11:19:44.082Z,66.29
2022-09-26T11:20:44.086Z,64.73
2022-09-26T11:21:44.049Z,65.34
2022-09-26T11:22:45.095Z,66.26
2022-09-26T11:23:44.071Z,65.65
2022-09-26T11:24:44.074Z,65.52
2022-09-26T11:25:44.038Z,65.31
2022-09-26T11:26:44.023Z,65.28
2022-09-26T11:27:44.057Z,65.25
2022-09-26T11:28:43.992Z,65.02
2022-09-26T11:29:43.982Z,63.60
2022-09-26T11:30:44.034Z,63.81
2022-09-26T11:31:44.146Z,63.27
2022-09-26T11:32:43.979Z,61.65
2022-09-26T11:33:43.981Z,61.75
2022-09-26T11:34:43.985Z,61.75
2022-09-26T11:35:43.940Z,61.14
2022-09-26T11:36:44.968Z,60.74
2022-09-26T11:37:43.955Z,59.65
2022-09-26T11:38:43.926Z,60.86
2022-09-26T11:39:43.920Z,62.08
2022-09-26T11:40:44.004Z,62.49
2022-09-26T11:41:43.898Z,60.36
2022-09-26T11:42:43.928Z,62.01
2022-09-26T11:43:43.910Z,61.88
2022-09-26T11:44:43.912Z,62.21
2022-09-26T11:45:47.348Z,60.06
2022-09-26T11:46:44.892Z,60.39
2022-09-26T11:47:43.864Z,59.68
2022-09-26T11:48:43.842Z,60.19
2022-09-26T11:49:44.532Z,60.62
2022-09-26T11:50:43.844Z,61.13
2022-09-26T11:51:43.809Z,61.23
2022-09-26T11:52:48.356Z,60.28
2022-09-26T11:53:45.813Z,60.28
2022-09-26T11:54:43.810Z,58.97
2022-09-26T11:55:43.799Z,59.70
2022-09-26T11:56:43.764Z,60.31
2022-09-26T11:57:44.793Z,60.42
2022-09-26T11:58:43.776Z,61.56
2022-09-26T11:59:43.785Z,61.83
2022-09-26T12:00:43.817Z,61.66
2022-09-26T12:01:43.758Z,61.23
2022-09-26T12:02:43.792Z,60.35
2022-09-26T12:03:43.857Z,61.23
2022-09-26T12:04:43.710Z,60.44
2022-09-26T12:05:43.708Z,61.46
2022-09-26T12:06:43.726Z,62.17
2022-09-26T12:07:43.698Z,61.76
2022-09-26T12:08:43.711Z,62.07
2022-09-26T12:09:43.725Z,63.39
2022-09-26T12:10:43.692Z,63.39
2022-09-26T12:11:43.678Z,62.37
2022-09-26T12:12:43.645Z,61.76
2022-09-26T12:13:43.690Z,63.69
2022-09-26T12:14:43.642Z,61.87
2022-09-26T12:15:43.760Z,62.78
2022-09-26T12:16:43.672Z,63.62
2022-09-26T12:17:43.613Z,62.98
2022-09-26T12:18:43.619Z,63.49
2022-09-26T12:19:43.594Z,62.37
2022-09-26T12:20:43.603Z,61.56
2022-09-26T12:21:43.573Z,62.17
2022-09-26T12:22:43.578Z,61.46
2022-09-26T12:23:43.617Z,59.63
2022-09-26T12:24:43.594Z,60.24
2022-09-26T12:25:43.553Z,61.46
2022-09-26T12:26:43.532Z,60.95
2022-09-26T12:27:43.564Z,60.75
2022-09-26T12:28:43.540Z,61.36
2022-09-26T12:29:43.545Z,61.36
2022-09-26T12:30:43.590Z,61.56
2022-09-26T12:31:43.556Z,63.39
2022-09-26T12:32:43.493Z,61.76
2022-09-26T12:33:43.570Z,61.46
2022-09-26T12:34:43.494Z,62.27
2022-09-26T12:35:43.452Z,62.78
2022-09-26T12:36:43.460Z,62.78
2022-09-26T12:37:43.462Z,62.98
2022-09-26T12:38:43.469Z,62.88
2022-09-26T12:39:43.439Z,63.49
2022-09-26T12:40:43.507Z,62.91
2022-09-26T12:41:43.465Z,63.82
2022-09-26T12:42:43.435Z,64.73
2022-09-26T12:43:43.479Z,64.73
2022-09-26T12:44:43.441Z,64.33
2022-09-26T12:45:43.395Z,64.43
2022-09-26T12:46:43.499Z,64.03
2022-09-26T12:47:43.391Z,65.58
2022-09-26T12:48:43.418Z,65.99
2022-09-26T12:49:43.379Z,66.39
2022-09-26T12:50:43.344Z,65.78
2022-09-26T12:51:43.383Z,65.78
2022-09-26T12:52:43.321Z,66.29
2022-09-26T12:53:43.386Z,65.58
2022-09-26T12:54:43.430Z,66.19
2022-09-26T12:55:43.309Z,66.90